sensor_id;sensor_type;location;lat;lon;timestamp;temperature;humidity
3356;DHT22;1691;52.486;13.374;2023-03-03T00:01:54;1.80;94.50
3356;DHT22;1691;52.486;13.374;2023-03-03T00:04:21;1.80;94.50
3356;DHT22;1691;52.486;13.374;2023-03-03T00:06:48;1.90;94.40
3356;DHT22;1691;52.486;13.374;2023-03-03T00:09:15;1.90;94.30
3356;DHT22;1691;52.486;13.374;2023-03-03T00:11:42;1.80;94.20
3356;DHT22;1691;52.486;13.374;2023-03-03T00:14:30;1.70;94.10
3356;DHT22;1691;52.486;13.374;2023-03-03T00:17:00;1.60;94.10
3356;DHT22;1691;52.486;13.374;2023-03-03T00:19:38;1.50;94.40
3356;DHT22;1691;52.486;13.374;2023-03-03T00:22:30;1.50;94.60
3356;DHT22;1691;52.486;13.374;2023-03-03T00:25:26;1.50;94.60
3356;DHT22;1691;52.486;13.374;2023-03-03T00:30:44;1.70;94.40
3356;DHT22;1691;52.486;13.374;2023-03-03T00:33:36;1.70;94.30
3356;DHT22;1691;52.486;13.374;2023-03-03T00:38:42;1.70;94.20
3356;DHT22;1691;52.486;13.374;2023-03-03T00:43:46;1.80;94.20
3356;DHT22;1691;52.486;13.374;2023-03-03T00:46:17;1.90;94.20
3356;DHT22;1691;52.486;13.374;2023-03-03T00:48:46;1.90;94.00
3356;DHT22;1691;52.486;13.374;2023-03-03T00:51:27;1.90;94.00
3356;DHT22;1691;52.486;13.374;2023-03-03T00:53:56;2.00;94.00
3356;DHT22;1691;52.486;13.374;2023-03-03T00:56:23;2.00;93.80
3356;DHT22;1691;52.486;13.374;2023-03-03T00:58:50;2.00;93.80
3356;DHT22;1691;52.486;13.374;2023-03-03T01:01:17;1.90;93.70
3356;DHT22;1691;52.486;13.374;2023-03-03T01:03:45;1.90;93.90
3356;DHT22;1691;52.486;13.374;2023-03-03T01:06:12;1.90;93.90
3356;DHT22;1691;52.486;13.374;2023-03-03T01:08:40;1.90;94.00
3356;DHT22;1691;52.486;13.374;2023-03-03T01:11:20;2.00;93.90
3356;DHT22;1691;52.486;13.374;2023-03-03T01:13:51;2.10;93.80
3356;DHT22;1691;52.486;13.374;2023-03-03T01:16:19;2.10;93.80
3356;DHT22;1691;52.486;13.374;2023-03-03T01:18:47;2.10;93.70
3356;DHT22;1691;52.486;13.374;2023-03-03T01:21:14;2.20;93.60
3356;DHT22;1691;52.486;13.374;2023-03-03T01:23:41;2.20;93.50
3356;DHT22;1691;52.486;13.374;2023-03-03T01:26:08;2.20;93.50
3356;DHT22;1691;52.486;13.374;2023-03-03T01:28:34;2.10;93.20
3356;DHT22;1691;52.486;13.374;2023-03-03T01:31:03;1.90;93.30
3356;DHT22;1691;52.486;13.374;2023-03-03T01:33:32;1.80;93.70
3356;DHT22;1691;52.486;13.374;2023-03-03T01:36:00;1.80;93.90
3356;DHT22;1691;52.486;13.374;2023-03-03T01:38:28;1.90;93.90
3356;DHT22;1691;52.486;13.374;2023-03-03T01:40:56;1.90;93.90
3356;DHT22;1691;52.486;13.374;2023-03-03T01:43:29;2.00;93.80
3356;DHT22;1691;52.486;13.374;2023-03-03T01:48:37;2.10;93.70
3356;DHT22;1691;52.486;13.374;2023-03-03T01:53:45;2.20;93.60
3356;DHT22;1691;52.486;13.374;2023-03-03T01:56:16;2.20;93.50
3356;DHT22;1691;52.486;13.374;2023-03-03T01:59:00;2.20;93.40
3356;DHT22;1691;52.486;13.374;2023-03-03T02:01:31;2.30;93.40
3356;DHT22;1691;52.486;13.374;2023-03-03T02:03:59;2.30;93.40
3356;DHT22;1691;52.486;13.374;2023-03-03T02:06:32;2.30;93.40
3356;DHT22;1691;52.486;13.374;2023-03-03T02:11:53;2.40;93.40
3356;DHT22;1691;52.486;13.374;2023-03-03T02:14:24;2.40;93.20
3356;DHT22;1691;52.486;13.374;2023-03-03T02:16:51;2.40;93.10
3356;DHT22;1691;52.486;13.374;2023-03-03T02:22:12;2.50;93.00
3356;DHT22;1691;52.486;13.374;2023-03-03T02:24:58;2.50;93.00
3356;DHT22;1691;52.486;13.374;2023-03-03T02:27:30;2.40;93.00
3356;DHT22;1691;52.486;13.374;2023-03-03T02:30:08;2.40;92.90
3356;DHT22;1691;52.486;13.374;2023-03-03T02:32:36;2.40;93.10
3356;DHT22;1691;52.486;13.374;2023-03-03T02:35:24;2.30;93.10
3356;DHT22;1691;52.486;13.374;2023-03-03T02:37:59;2.20;93.20
3356;DHT22;1691;52.486;13.374;2023-03-03T02:40:33;2.10;93.10
3356;DHT22;1691;52.486;13.374;2023-03-03T02:43:04;2.00;93.10
3356;DHT22;1691;52.486;13.374;2023-03-03T02:45:32;1.90;93.50
3356;DHT22;1691;52.486;13.374;2023-03-03T02:47:59;2.00;93.80
3356;DHT22;1691;52.486;13.374;2023-03-03T02:50:26;2.00;93.70
3356;DHT22;1691;52.486;13.374;2023-03-03T02:52:53;2.10;93.60
3356;DHT22;1691;52.486;13.374;2023-03-03T02:55:20;2.10;93.50
3356;DHT22;1691;52.486;13.374;2023-03-03T02:57:47;2.10;93.50
3356;DHT22;1691;52.486;13.374;2023-03-03T03:00:14;2.10;93.40
3356;DHT22;1691;52.486;13.374;2023-03-03T03:02:41;2.20;93.40
3356;DHT22;1691;52.486;13.374;2023-03-03T03:05:08;2.20;93.40
3356;DHT22;1691;52.486;13.374;2023-03-03T03:07:35;2.20;93.40
3356;DHT22;1691;52.486;13.374;2023-03-03T03:10:03;2.20;93.30
3356;DHT22;1691;52.486;13.374;2023-03-03T03:12:30;2.10;93.30
3356;DHT22;1691;52.486;13.374;2023-03-03T03:14:57;2.10;93.40
3356;DHT22;1691;52.486;13.374;2023-03-03T03:17:25;2.10;93.40
3356;DHT22;1691;52.486;13.374;2023-03-03T03:19:52;2.10;93.50
3356;DHT22;1691;52.486;13.374;2023-03-03T03:22:18;2.00;93.50
3356;DHT22;1691;52.486;13.374;2023-03-03T03:24:45;2.00;93.50
3356;DHT22;1691;52.486;13.374;2023-03-03T03:27:12;2.00;93.50
3356;DHT22;1691;52.486;13.374;2023-03-03T03:29:39;1.90;93.60
3356;DHT22;1691;52.486;13.374;2023-03-03T03:32:06;1.80;93.70
3356;DHT22;1691;52.486;13.374;2023-03-03T03:34:33;1.90;93.90
3356;DHT22;1691;52.486;13.374;2023-03-03T03:37:00;1.90;93.90
3356;DHT22;1691;52.486;13.374;2023-03-03T03:39:27;2.00;93.80
3356;DHT22;1691;52.486;13.374;2023-03-03T03:41:54;2.00;93.60
3356;DHT22;1691;52.486;13.374;2023-03-03T03:44:21;1.90;93.60
3356;DHT22;1691;52.486;13.374;2023-03-03T03:46:49;1.80;93.80
3356;DHT22;1691;52.486;13.374;2023-03-03T03:49:16;1.80;93.80
3356;DHT22;1691;52.486;13.374;2023-03-03T03:51:46;1.80;93.90
3356;DHT22;1691;52.486;13.374;2023-03-03T03:54:13;1.90;93.90
3356;DHT22;1691;52.486;13.374;2023-03-03T03:56:40;1.90;93.90
3356;DHT22;1691;52.486;13.374;2023-03-03T03:59:07;1.90;93.80
3356;DHT22;1691;52.486;13.374;2023-03-03T04:01:34;1.80;93.80
3356;DHT22;1691;52.486;13.374;2023-03-03T04:04:00;1.80;93.90
3356;DHT22;1691;52.486;13.374;2023-03-03T04:06:30;1.80;93.90
3356;DHT22;1691;52.486;13.374;2023-03-03T04:08:57;1.80;93.90
3356;DHT22;1691;52.486;13.374;2023-03-03T04:11:24;1.80;93.90
3356;DHT22;1691;52.486;13.374;2023-03-03T04:13:50;1.90;93.90
3356;DHT22;1691;52.486;13.374;2023-03-03T04:16:17;1.80;93.80
3356;DHT22;1691;52.486;13.374;2023-03-03T04:18:44;1.80;93.90
3356;DHT22;1691;52.486;13.374;2023-03-03T04:21:13;1.80;94.10
3356;DHT22;1691;52.486;13.374;2023-03-03T04:23:41;1.90;94.00
3356;DHT22;1691;52.486;13.374;2023-03-03T04:26:08;1.90;94.00
3356;DHT22;1691;52.486;13.374;2023-03-03T04:28:36;1.90;94.00
3356;DHT22;1691;52.486;13.374;2023-03-03T04:31:03;1.90;94.10
3356;DHT22;1691;52.486;13.374;2023-03-03T04:33:30;2.00;94.00
3356;DHT22;1691;52.486;13.374;2023-03-03T04:35:56;1.90;93.90
3356;DHT22;1691;52.486;13.374;2023-03-03T04:38:24;1.90;94.00
3356;DHT22;1691;52.486;13.374;2023-03-03T04:40:51;1.90;94.00
3356;DHT22;1691;52.486;13.374;2023-03-03T04:43:19;1.80;93.90
3356;DHT22;1691;52.486;13.374;2023-03-03T04:45:46;1.80;94.00
3356;DHT22;1691;52.486;13.374;2023-03-03T04:48:13;1.70;94.00
3356;DHT22;1691;52.486;13.374;2023-03-03T04:50:41;1.70;94.10
3356;DHT22;1691;52.486;13.374;2023-03-03T04:53:09;1.60;94.10
3356;DHT22;1691;52.486;13.374;2023-03-03T04:55:37;1.60;94.20
3356;DHT22;1691;52.486;13.374;2023-03-03T04:58:04;1.60;94.30
3356;DHT22;1691;52.486;13.374;2023-03-03T05:00:31;1.70;94.30
3356;DHT22;1691;52.486;13.374;2023-03-03T05:02:58;1.70;94.20
3356;DHT22;1691;52.486;13.374;2023-03-03T05:05:25;1.60;94.10
3356;DHT22;1691;52.486;13.374;2023-03-03T05:07:52;1.60;94.20
3356;DHT22;1691;52.486;13.374;2023-03-03T05:10:19;1.60;94.30
3356;DHT22;1691;52.486;13.374;2023-03-03T05:12:47;1.60;94.30
3356;DHT22;1691;52.486;13.374;2023-03-03T05:15:14;1.60;94.20
3356;DHT22;1691;52.486;13.374;2023-03-03T05:17:41;1.50;94.30
3356;DHT22;1691;52.486;13.374;2023-03-03T05:20:08;1.50;94.50
3356;DHT22;1691;52.486;13.374;2023-03-03T05:22:36;1.50;94.50
3356;DHT22;1691;52.486;13.374;2023-03-03T05:25:03;1.40;94.50
3356;DHT22;1691;52.486;13.374;2023-03-03T05:27:30;1.40;94.60
3356;DHT22;1691;52.486;13.374;2023-03-03T05:29:57;1.50;94.70
3356;DHT22;1691;52.486;13.374;2023-03-03T05:32:24;1.40;94.60
3356;DHT22;1691;52.486;13.374;2023-03-03T05:34:51;1.40;94.60
3356;DHT22;1691;52.486;13.374;2023-03-03T05:37:18;1.40;94.60
3356;DHT22;1691;52.486;13.374;2023-03-03T05:39:45;1.30;94.70
3356;DHT22;1691;52.486;13.374;2023-03-03T05:42:12;1.40;94.80
3356;DHT22;1691;52.486;13.374;2023-03-03T05:44:40;1.40;94.80
3356;DHT22;1691;52.486;13.374;2023-03-03T05:47:07;1.40;94.80
3356;DHT22;1691;52.486;13.374;2023-03-03T05:49:34;1.40;94.80
3356;DHT22;1691;52.486;13.374;2023-03-03T05:52:00;1.40;94.80
3356;DHT22;1691;52.486;13.374;2023-03-03T05:54:27;1.40;94.90
3356;DHT22;1691;52.486;13.374;2023-03-03T05:56:54;1.50;94.90
3356;DHT22;1691;52.486;13.374;2023-03-03T05:59:23;1.50;95.00
3356;DHT22;1691;52.486;13.374;2023-03-03T06:01:50;1.50;94.90
3356;DHT22;1691;52.486;13.374;2023-03-03T06:04:17;1.50;94.90
3356;DHT22;1691;52.486;13.374;2023-03-03T06:06:44;1.50;95.10
3356;DHT22;1691;52.486;13.374;2023-03-03T06:09:11;1.60;95.20
3356;DHT22;1691;52.486;13.374;2023-03-03T06:11:38;1.70;95.00
3356;DHT22;1691;52.486;13.374;2023-03-03T06:14:05;1.60;94.70
3356;DHT22;1691;52.486;13.374;2023-03-03T06:16:32;1.60;94.70
3356;DHT22;1691;52.486;13.374;2023-03-03T06:18:59;1.60;94.90
3356;DHT22;1691;52.486;13.374;2023-03-03T06:21:26;1.50;94.90
3356;DHT22;1691;52.486;13.374;2023-03-03T06:23:53;1.50;95.00
3356;DHT22;1691;52.486;13.374;2023-03-03T06:26:20;1.50;95.00
3356;DHT22;1691;52.486;13.374;2023-03-03T06:28:47;1.60;95.10
3356;DHT22;1691;52.486;13.374;2023-03-03T06:31:15;1.60;95.10
3356;DHT22;1691;52.486;13.374;2023-03-03T06:33:42;1.60;95.00
3356;DHT22;1691;52.486;13.374;2023-03-03T06:36:09;1.60;94.90
3356;DHT22;1691;52.486;13.374;2023-03-03T06:38:36;1.50;95.00
3356;DHT22;1691;52.486;13.374;2023-03-03T06:41:03;1.50;95.00
3356;DHT22;1691;52.486;13.374;2023-03-03T06:43:33;1.50;95.00
3356;DHT22;1691;52.486;13.374;2023-03-03T06:46:01;1.50;95.10
3356;DHT22;1691;52.486;13.374;2023-03-03T06:48:30;1.40;95.10
3356;DHT22;1691;52.486;13.374;2023-03-03T06:50:59;1.40;95.20
3356;DHT22;1691;52.486;13.374;2023-03-03T06:53:30;1.40;95.30
3356;DHT22;1691;52.486;13.374;2023-03-03T06:55:59;1.40;95.30
3356;DHT22;1691;52.486;13.374;2023-03-03T06:58:27;1.40;95.30
3356;DHT22;1691;52.486;13.374;2023-03-03T07:00:59;1.40;95.30
3356;DHT22;1691;52.486;13.374;2023-03-03T07:03:32;1.40;95.30
3356;DHT22;1691;52.486;13.374;2023-03-03T07:06:00;1.40;95.30
3356;DHT22;1691;52.486;13.374;2023-03-03T07:08:31;1.50;95.40
3356;DHT22;1691;52.486;13.374;2023-03-03T07:11:01;1.50;95.40
3356;DHT22;1691;52.486;13.374;2023-03-03T07:13:38;1.60;95.40
3356;DHT22;1691;52.486;13.374;2023-03-03T07:16:11;1.60;95.40
3356;DHT22;1691;52.486;13.374;2023-03-03T07:18:49;1.70;95.50
3356;DHT22;1691;52.486;13.374;2023-03-03T07:21:21;1.80;95.30
3356;DHT22;1691;52.486;13.374;2023-03-03T07:23:52;1.80;95.20
3356;DHT22;1691;52.486;13.374;2023-03-03T07:26:25;1.80;95.20
3356;DHT22;1691;52.486;13.374;2023-03-03T07:29:02;1.80;95.20
3356;DHT22;1691;52.486;13.374;2023-03-03T07:31:51;1.90;95.20
3356;DHT22;1691;52.486;13.374;2023-03-03T07:34:37;1.90;95.10
3356;DHT22;1691;52.486;13.374;2023-03-03T07:37:30;1.90;95.10
3356;DHT22;1691;52.486;13.374;2023-03-03T07:40:00;1.80;95.00
3356;DHT22;1691;52.486;13.374;2023-03-03T07:42:41;1.80;95.20
3356;DHT22;1691;52.486;13.374;2023-03-03T07:45:39;1.80;95.20
3356;DHT22;1691;52.486;13.374;2023-03-03T07:50:40;1.90;95.20
3356;DHT22;1691;52.486;13.374;2023-03-03T07:53:30;2.00;95.10
3356;DHT22;1691;52.486;13.374;2023-03-03T07:56:00;2.00;95.00
3356;DHT22;1691;52.486;13.374;2023-03-03T07:58:37;2.00;95.10
3356;DHT22;1691;52.486;13.374;2023-03-03T08:06:58;2.10;95.10
3356;DHT22;1691;52.486;13.374;2023-03-03T08:09:38;2.10;95.10
3356;DHT22;1691;52.486;13.374;2023-03-03T08:12:40;2.20;95.00
3356;DHT22;1691;52.486;13.374;2023-03-03T08:15:27;2.20;94.90
3356;DHT22;1691;52.486;13.374;2023-03-03T08:17:59;2.20;94.80
3356;DHT22;1691;52.486;13.374;2023-03-03T08:20:43;2.20;94.80
3356;DHT22;1691;52.486;13.374;2023-03-03T08:23:12;2.20;94.90
3356;DHT22;1691;52.486;13.374;2023-03-03T08:25:41;2.30;94.90
3356;DHT22;1691;52.486;13.374;2023-03-03T08:28:09;2.30;94.90
3356;DHT22;1691;52.486;13.374;2023-03-03T08:30:36;2.30;95.00
3356;DHT22;1691;52.486;13.374;2023-03-03T08:33:03;2.40;95.00
3356;DHT22;1691;52.486;13.374;2023-03-03T08:35:31;2.50;94.90
3356;DHT22;1691;52.486;13.374;2023-03-03T08:37:58;2.50;94.90
3356;DHT22;1691;52.486;13.374;2023-03-03T08:40:24;2.60;94.90
3356;DHT22;1691;52.486;13.374;2023-03-03T08:42:51;2.80;94.90
3356;DHT22;1691;52.486;13.374;2023-03-03T08:45:20;2.90;94.80
3356;DHT22;1691;52.486;13.374;2023-03-03T08:47:47;2.90;94.60
3356;DHT22;1691;52.486;13.374;2023-03-03T08:50:14;2.90;94.50
3356;DHT22;1691;52.486;13.374;2023-03-03T08:52:42;3.00;94.50
3356;DHT22;1691;52.486;13.374;2023-03-03T08:55:10;3.00;94.50
3356;DHT22;1691;52.486;13.374;2023-03-03T08:57:37;3.00;94.40
3356;DHT22;1691;52.486;13.374;2023-03-03T09:00:07;3.10;94.40
3356;DHT22;1691;52.486;13.374;2023-03-03T09:02:35;3.10;94.30
3356;DHT22;1691;52.486;13.374;2023-03-03T09:05:03;3.10;94.20
3356;DHT22;1691;52.486;13.374;2023-03-03T09:07:30;3.10;94.10
3356;DHT22;1691;52.486;13.374;2023-03-03T09:09:57;3.10;94.00
3356;DHT22;1691;52.486;13.374;2023-03-03T09:12:34;3.20;94.20
3356;DHT22;1691;52.486;13.374;2023-03-03T09:15:19;3.30;94.20
3356;DHT22;1691;52.486;13.374;2023-03-03T09:20:53;3.40;93.80
3356;DHT22;1691;52.486;13.374;2023-03-03T09:31:55;3.60;93.60
3356;DHT22;1691;52.486;13.374;2023-03-03T09:37:25;3.80;93.30
3356;DHT22;1691;52.486;13.374;2023-03-03T09:39:55;3.90;93.10
3356;DHT22;1691;52.486;13.374;2023-03-03T09:55:00;4.20;92.70
3356;DHT22;1691;52.486;13.374;2023-03-03T10:02:02;4.50;92.30
3356;DHT22;1691;52.486;13.374;2023-03-03T10:13:50;5.00;91.70
3356;DHT22;1691;52.486;13.374;2023-03-03T10:20:21;5.20;91.30
3356;DHT22;1691;52.486;13.374;2023-03-03T10:22:52;5.20;91.00
3356;DHT22;1691;52.486;13.374;2023-03-03T10:31:56;5.30;90.90
3356;DHT22;1691;52.486;13.374;2023-03-03T10:42:48;5.20;90.40
3356;DHT22;1691;52.486;13.374;2023-03-03T10:57:16;5.40;90.10
3356;DHT22;1691;52.486;13.374;2023-03-03T11:00:26;5.40;89.90
3356;DHT22;1691;52.486;13.374;2023-03-03T11:05:52;5.20;89.90
3356;DHT22;1691;52.486;13.374;2023-03-03T11:11:30;5.10;90.10
3356;DHT22;1691;52.486;13.374;2023-03-03T11:14:22;5.10;90.10
3356;DHT22;1691;52.486;13.374;2023-03-03T11:20:33;5.30;90.10
3356;DHT22;1691;52.486;13.374;2023-03-03T11:25:41;5.40;89.90
3356;DHT22;1691;52.486;13.374;2023-03-03T11:28:37;5.40;89.70
3356;DHT22;1691;52.486;13.374;2023-03-03T11:31:16;5.40;89.70
3356;DHT22;1691;52.486;13.374;2023-03-03T11:34:28;5.40;89.90
3356;DHT22;1691;52.486;13.374;2023-03-03T11:40:16;5.40;89.90
3356;DHT22;1691;52.486;13.374;2023-03-03T11:46:08;5.40;89.50
3356;DHT22;1691;52.486;13.374;2023-03-03T11:48:45;5.50;89.90
3356;DHT22;1691;52.486;13.374;2023-03-03T11:51:40;5.60;89.70
3356;DHT22;1691;52.486;13.374;2023-03-03T11:54:47;5.70;89.50
3356;DHT22;1691;52.486;13.374;2023-03-03T12:06:22;5.90;88.60
3356;DHT22;1691;52.486;13.374;2023-03-03T12:11:52;6.00;88.40
3356;DHT22;1691;52.486;13.374;2023-03-03T12:14:56;6.00;88.20
3356;DHT22;1691;52.486;13.374;2023-03-03T12:21:08;6.10;88.20
3356;DHT22;1691;52.486;13.374;2023-03-03T12:33:41;6.10;87.50
3356;DHT22;1691;52.486;13.374;2023-03-03T12:48:16;6.30;87.30
3356;DHT22;1691;52.486;13.374;2023-03-03T12:51:08;6.30;87.30
3356;DHT22;1691;52.486;13.374;2023-03-03T12:56:12;6.40;86.90
3356;DHT22;1691;52.486;13.374;2023-03-03T13:04:56;6.20;87.10
3356;DHT22;1691;52.486;13.374;2023-03-03T13:17:29;6.00;87.70
3356;DHT22;1691;52.486;13.374;2023-03-03T13:23:40;6.10;87.70
3356;DHT22;1691;52.486;13.374;2023-03-03T13:31:58;6.20;87.50
3356;DHT22;1691;52.486;13.374;2023-03-03T13:34:33;6.20;87.30
3356;DHT22;1691;52.486;13.374;2023-03-03T13:37:34;6.30;87.30
3356;DHT22;1691;52.486;13.374;2023-03-03T13:51:25;6.20;87.30
3356;DHT22;1691;52.486;13.374;2023-03-03T14:01:07;6.20;87.10
3356;DHT22;1691;52.486;13.374;2023-03-03T14:03:54;6.20;87.30
3356;DHT22;1691;52.486;13.374;2023-03-03T14:06:27;6.30;87.30
3356;DHT22;1691;52.486;13.374;2023-03-03T14:12:28;6.50;86.90
3356;DHT22;1691;52.486;13.374;2023-03-03T14:18:26;6.70;86.50
3356;DHT22;1691;52.486;13.374;2023-03-03T14:21:06;6.70;86.50
3356;DHT22;1691;52.486;13.374;2023-03-03T14:26:24;6.80;86.20
3356;DHT22;1691;52.486;13.374;2023-03-03T14:29:10;6.70;86.40
3356;DHT22;1691;52.486;13.374;2023-03-03T14:31:42;6.60;86.40
3356;DHT22;1691;52.486;13.374;2023-03-03T14:34:28;6.50;86.50
3356;DHT22;1691;52.486;13.374;2023-03-03T14:40:13;6.40;86.70
3356;DHT22;1691;52.486;13.374;2023-03-03T14:42:52;6.30;86.70
3356;DHT22;1691;52.486;13.374;2023-03-03T14:45:38;6.30;86.90
3356;DHT22;1691;52.486;13.374;2023-03-03T14:48:18;6.30;86.90
3356;DHT22;1691;52.486;13.374;2023-03-03T14:53:22;6.30;87.10
3356;DHT22;1691;52.486;13.374;2023-03-03T14:56:25;6.40;87.10
3356;DHT22;1691;52.486;13.374;2023-03-03T14:59:18;6.40;86.90
3356;DHT22;1691;52.486;13.374;2023-03-03T15:01:46;6.50;86.90
3356;DHT22;1691;52.486;13.374;2023-03-03T15:06:58;6.50;86.70
3356;DHT22;1691;52.486;13.374;2023-03-03T15:09:48;6.50;86.70
3356;DHT22;1691;52.486;13.374;2023-03-03T15:15:20;6.60;86.50
3356;DHT22;1691;52.486;13.374;2023-03-03T15:20:37;6.60;86.40
3356;DHT22;1691;52.486;13.374;2023-03-03T15:26:44;6.60;86.20
3356;DHT22;1691;52.486;13.374;2023-03-03T15:29:28;6.50;86.40
3356;DHT22;1691;52.486;13.374;2023-03-03T15:37:46;6.40;86.40
3356;DHT22;1691;52.486;13.374;2023-03-03T15:40:35;6.40;86.50
3356;DHT22;1691;52.486;13.374;2023-03-03T15:46:26;6.30;86.90
3356;DHT22;1691;52.486;13.374;2023-03-03T15:49:29;6.30;86.90
3356;DHT22;1691;52.486;13.374;2023-03-03T16:04:04;6.30;87.10
3356;DHT22;1691;52.486;13.374;2023-03-03T16:06:48;6.30;86.90
3356;DHT22;1691;52.486;13.374;2023-03-03T16:13:01;6.30;86.90
3356;DHT22;1691;52.486;13.374;2023-03-03T16:27:30;6.00;87.10
3356;DHT22;1691;52.486;13.374;2023-03-03T16:39:09;5.80;88.00
3356;DHT22;1691;52.486;13.374;2023-03-03T16:50:45;5.70;88.40
3356;DHT22;1691;52.486;13.374;2023-03-03T16:56:27;5.60;88.40
3356;DHT22;1691;52.486;13.374;2023-03-03T16:59:28;5.50;88.60
3356;DHT22;1691;52.486;13.374;2023-03-03T17:16:58;4.90;89.70
3356;DHT22;1691;52.486;13.374;2023-03-03T17:19:48;4.70;90.10
3356;DHT22;1691;52.486;13.374;2023-03-03T17:23:00;4.70;90.20
3356;DHT22;1691;52.486;13.374;2023-03-03T17:28:30;4.50;90.40
3356;DHT22;1691;52.486;13.374;2023-03-03T17:31:41;4.50;90.60
3356;DHT22;1691;52.486;13.374;2023-03-03T17:34:33;4.40;90.70
3356;DHT22;1691;52.486;13.374;2023-03-03T17:37:52;4.40;90.80
3356;DHT22;1691;52.486;13.374;2023-03-03T17:46:45;4.30;91.10
3356;DHT22;1691;52.486;13.374;2023-03-03T17:55:22;4.50;91.60
3356;DHT22;1691;52.486;13.374;2023-03-03T18:15:23;5.20;91.60
3356;DHT22;1691;52.486;13.374;2023-03-03T18:21:13;5.30;91.60
3356;DHT22;1691;52.486;13.374;2023-03-03T18:41:11;5.40;91.50
3356;DHT22;1691;52.486;13.374;2023-03-03T19:04:44;5.20;91.70
3356;DHT22;1691;52.486;13.374;2023-03-03T19:16:04;5.10;91.80
3356;DHT22;1691;52.486;13.374;2023-03-03T19:21:28;5.10;91.90
3356;DHT22;1691;52.486;13.374;2023-03-03T19:24:05;5.10;91.90
3356;DHT22;1691;52.486;13.374;2023-03-03T19:29:41;5.00;91.90
3356;DHT22;1691;52.486;13.374;2023-03-03T19:56:48;5.10;92.10
3356;DHT22;1691;52.486;13.374;2023-03-03T20:02:35;5.20;92.10
3356;DHT22;1691;52.486;13.374;2023-03-03T20:05:34;5.20;92.10
3356;DHT22;1691;52.486;13.374;2023-03-03T20:11:50;5.20;91.90
3356;DHT22;1691;52.486;13.374;2023-03-03T20:14:47;5.30;91.90
3356;DHT22;1691;52.486;13.374;2023-03-03T20:20:30;5.40;91.80
3356;DHT22;1691;52.486;13.374;2023-03-03T20:23:59;5.40;91.80
3356;DHT22;1691;52.486;13.374;2023-03-03T20:33:21;5.40;91.70
3356;DHT22;1691;52.486;13.374;2023-03-03T20:38:48;5.30;91.70
3356;DHT22;1691;52.486;13.374;2023-03-03T20:44:31;5.30;91.70
3356;DHT22;1691;52.486;13.374;2023-03-03T20:54:12;5.20;91.80
3356;DHT22;1691;52.486;13.374;2023-03-03T20:57:02;5.20;91.80
3356;DHT22;1691;52.486;13.374;2023-03-03T21:00:21;5.20;91.80
3356;DHT22;1691;52.486;13.374;2023-03-03T21:07:01;5.20;91.70
3356;DHT22;1691;52.486;13.374;2023-03-03T21:09:37;5.10;91.70
3356;DHT22;1691;52.486;13.374;2023-03-03T21:12:47;5.10;91.60
3356;DHT22;1691;52.486;13.374;2023-03-03T21:15:39;5.10;91.60
3356;DHT22;1691;52.486;13.374;2023-03-03T21:18:22;5.00;91.60
3356;DHT22;1691;52.486;13.374;2023-03-03T21:21:16;5.00;91.60
3356;DHT22;1691;52.486;13.374;2023-03-03T21:24:00;5.00;91.60
3356;DHT22;1691;52.486;13.374;2023-03-03T21:26:59;5.00;91.50
3356;DHT22;1691;52.486;13.374;2023-03-03T21:29:45;4.90;91.50
3356;DHT22;1691;52.486;13.374;2023-03-03T21:32:54;4.90;91.60
3356;DHT22;1691;52.486;13.374;2023-03-03T21:35:31;5.00;91.50
3356;DHT22;1691;52.486;13.374;2023-03-03T21:38:38;5.00;91.50
3356;DHT22;1691;52.486;13.374;2023-03-03T21:45:14;5.00;91.40
3356;DHT22;1691;52.486;13.374;2023-03-03T21:48:08;5.00;91.30
3356;DHT22;1691;52.486;13.374;2023-03-03T21:51:08;4.90;91.20
3356;DHT22;1691;52.486;13.374;2023-03-03T21:54:25;4.90;91.20
3356;DHT22;1691;52.486;13.374;2023-03-03T21:57:47;4.90;91.20
3356;DHT22;1691;52.486;13.374;2023-03-03T22:00:49;4.90;91.20
3356;DHT22;1691;52.486;13.374;2023-03-03T22:04:03;4.90;91.20
3356;DHT22;1691;52.486;13.374;2023-03-03T22:07:07;4.90;91.20
3356;DHT22;1691;52.486;13.374;2023-03-03T22:09:56;4.90;91.10
3356;DHT22;1691;52.486;13.374;2023-03-03T22:12:49;4.90;91.00
3356;DHT22;1691;52.486;13.374;2023-03-03T22:15:58;4.90;91.00
3356;DHT22;1691;52.486;13.374;2023-03-03T22:19:19;4.90;90.90
3356;DHT22;1691;52.486;13.374;2023-03-03T22:22:22;4.90;90.90
3356;DHT22;1691;52.486;13.374;2023-03-03T22:25:54;4.90;90.90
3356;DHT22;1691;52.486;13.374;2023-03-03T22:28:50;4.80;90.90
3356;DHT22;1691;52.486;13.374;2023-03-03T22:31:40;4.80;90.90
3356;DHT22;1691;52.486;13.374;2023-03-03T22:34:35;4.80;90.90
3356;DHT22;1691;52.486;13.374;2023-03-03T22:40:55;4.70;91.00
3356;DHT22;1691;52.486;13.374;2023-03-03T22:43:47;4.70;91.00
3356;DHT22;1691;52.486;13.374;2023-03-03T22:47:40;4.70;91.00
3356;DHT22;1691;52.486;13.374;2023-03-03T22:50:27;4.70;91.00
3356;DHT22;1691;52.486;13.374;2023-03-03T22:53:14;4.70;91.00
3356;DHT22;1691;52.486;13.374;2023-03-03T22:56:18;4.60;91.10
3356;DHT22;1691;52.486;13.374;2023-03-03T23:02:59;4.60;91.10
3356;DHT22;1691;52.486;13.374;2023-03-03T23:05:44;4.60;91.10
3356;DHT22;1691;52.486;13.374;2023-03-03T23:08:33;4.60;91.30
3356;DHT22;1691;52.486;13.374;2023-03-03T23:11:23;4.50;91.30
3356;DHT22;1691;52.486;13.374;2023-03-03T23:14:30;4.50;91.30
3356;DHT22;1691;52.486;13.374;2023-03-03T23:17:47;4.40;91.30
3356;DHT22;1691;52.486;13.374;2023-03-03T23:20:32;4.30;91.30
3356;DHT22;1691;52.486;13.374;2023-03-03T23:23:26;4.10;91.40
3356;DHT22;1691;52.486;13.374;2023-03-03T23:26:29;3.90;91.40
3356;DHT22;1691;52.486;13.374;2023-03-03T23:29:11;3.70;91.60
3356;DHT22;1691;52.486;13.374;2023-03-03T23:34:52;3.50;92.00
3356;DHT22;1691;52.486;13.374;2023-03-03T23:37:55;3.40;92.10
3356;DHT22;1691;52.486;13.374;2023-03-03T23:44:28;3.20;92.60
3356;DHT22;1691;52.486;13.374;2023-03-03T23:47:24;3.20;92.60
3356;DHT22;1691;52.486;13.374;2023-03-03T23:51:02;3.10;92.60
3356;DHT22;1691;52.486;13.374;2023-03-03T23:54:00;3.00;92.80
3356;DHT22;1691;52.486;13.374;2023-03-03T23:56:58;3.00;93.00
3356;DHT22;1691;52.486;13.374;2023-03-03T23:59:43;2.90;93.10
